Terminal Aerodrome Forecast
Issued by NWS

Home | Current Version | Previous Version | Text Only | Print | Product List | Glossary On
Versions: 1 2 3 4 5 6 7 8 9 10 11 12 13
992
FTUS41 KGYX 251720
TAFPSM
TAF
KPSM 251720Z 2518/2618 21010G18KT P6SM SCT100 BKN250
     FM252300 20008KT P6SM SCT050 BKN100
     FM260900 23006KT 5SM BR SCT025 BKN050
     FM261400 25007KT P6SM SCT050 BKN100=

USA.gov is the U.S. government's official web portal to all federal, state and local government web resources and services.